Parq Forestal, Puerto Rico
Current Conditions -  °F | °C
As of 3:56 PM on Thursday 18 Dec 2014 (Local Time) from TJSJ Reporting Station
Broken Clouds Broken Clouds  
Wind Chill: 78°   Ceiling: 4700
Heat Index: 81°   Visibility: 10mi
Dew Point: 73°   Wind: 10mph
Humidity: 84%   Direction: 360°N
Pressure: 29.97"   Gusts: NA
Location:  18.3754°N, 66.0577°W
Report Text: TJSJ 181956Z 36009KT 10SM SCT025 SCT036 BKN047 26/23 A2997 RMK AO2 RAB27E46 SLP147 VCSH S SW-W P0005 T02560228
Loading
Personal Weather Stations






























Interactive Weather Map New forecast layout! Learn more

10-Day Weather Forecast

Advertisements
Track Severe Weather on mobile